createdAt,value
2023-04-23T00:00:54.669Z,64.94
2023-04-23T00:01:53.675Z,63.81
2023-04-23T00:02:52.780Z,64.29
2023-04-23T00:03:52.822Z,63.65
2023-04-23T00:04:53.045Z,64.61
2023-04-23T00:05:52.634Z,64.78
2023-04-23T00:06:52.628Z,63.65
2023-04-23T00:07:52.630Z,64.45
2023-04-23T00:08:52.610Z,64.78
2023-04-23T00:09:52.627Z,64.13
2023-04-23T00:10:52.582Z,64.29
2023-04-23T00:11:52.574Z,63.97
2023-04-23T00:12:52.687Z,64.61
2023-04-23T00:13:52.564Z,64.61
2023-04-23T00:14:52.545Z,65.10
2023-04-23T00:15:52.659Z,64.13
2023-04-23T00:16:52.524Z,63.97
2023-04-23T00:17:52.530Z,64.45
2023-04-23T00:18:52.501Z,64.78
2023-04-23T00:19:52.491Z,63.49
2023-04-23T00:20:52.481Z,65.26
2023-04-23T00:21:52.473Z,63.81
2023-04-23T00:22:52.474Z,63.81
2023-04-23T00:23:52.459Z,63.65
2023-04-23T00:24:52.447Z,63.33
2023-04-23T00:25:52.436Z,63.97
2023-04-23T00:26:52.422Z,63.16
2023-04-23T00:27:52.426Z,63.16
2023-04-23T00:28:52.405Z,63.65
2023-04-23T00:29:52.405Z,63.16
2023-04-23T00:30:52.392Z,63.16
2023-04-23T00:31:52.417Z,63.00
2023-04-23T00:32:52.378Z,62.84
2023-04-23T00:33:52.349Z,62.20
2023-04-23T00:34:52.361Z,61.87
2023-04-23T00:35:52.331Z,62.52
2023-04-23T00:36:52.332Z,61.55
2023-04-23T00:37:52.315Z,62.84
2023-04-23T00:38:52.298Z,63.00
2023-04-23T00:39:52.288Z,63.16
2023-04-23T00:40:52.277Z,61.71
2023-04-23T00:41:52.270Z,62.68
2023-04-23T00:42:52.275Z,61.55
2023-04-23T00:43:52.249Z,63.00
2023-04-23T00:44:52.263Z,63.65
2023-04-23T00:45:52.240Z,62.20
2023-04-23T00:46:52.219Z,61.23
2023-04-23T00:47:52.259Z,62.36
2023-04-23T00:48:52.202Z,60.75
2023-04-23T00:49:52.187Z,61.39
2023-04-23T00:50:52.170Z,63.33
2023-04-23T00:51:52.167Z,62.68
2023-04-23T00:52:52.172Z,62.36
2023-04-23T00:53:52.152Z,62.68
2023-04-23T00:54:52.138Z,61.39
2023-04-23T00:55:52.134Z,61.39
2023-04-23T00:56:52.113Z,62.36
2023-04-23T00:57:53.118Z,63.16
2023-04-23T00:58:52.098Z,62.04
2023-04-23T00:59:52.093Z,62.04
2023-04-23T01:00:52.100Z,62.36
2023-04-23T01:01:52.071Z,62.52
2023-04-23T01:02:52.150Z,62.04
2023-04-23T01:03:52.237Z,61.07
2023-04-23T01:04:52.039Z,61.87
2023-04-23T01:05:52.039Z,60.59
2023-04-23T01:06:52.012Z,60.59
2023-04-23T01:07:52.036Z,60.59
2023-04-23T01:08:52.003Z,61.07
2023-04-23T01:09:51.992Z,61.55
2023-04-23T01:10:51.975Z,59.78
2023-04-23T01:11:51.967Z,59.62
2023-04-23T01:12:51.966Z,60.26
2023-04-23T01:13:51.945Z,61.55
2023-04-23T01:14:51.932Z,61.55
2023-04-23T01:15:51.948Z,61.71
2023-04-23T01:16:51.932Z,61.23
2023-04-23T01:17:51.946Z,61.39
2023-04-23T01:18:51.894Z,61.23
2023-04-23T01:19:51.886Z,61.07
2023-04-23T01:20:51.882Z,61.23
2023-04-23T01:21:51.865Z,62.04
2023-04-23T01:22:51.864Z,61.39
2023-04-23T01:23:51.858Z,62.36
2023-04-23T01:24:51.832Z,61.55
2023-04-23T01:25:51.821Z,61.87
2023-04-23T01:26:52.073Z,63.00
2023-04-23T01:27:51.797Z,63.33
2023-04-23T01:28:51.815Z,62.20
2023-04-23T01:29:51.779Z,62.04
2023-04-23T01:30:51.798Z,61.87
2023-04-23T01:31:51.772Z,62.52
2023-04-23T01:32:51.799Z,62.68
2023-04-23T01:33:52.754Z,62.52
2023-04-23T01:34:51.732Z,61.87
2023-04-23T01:35:51.721Z,62.04
2023-04-23T01:36:51.715Z,62.36
2023-04-23T01:37:51.698Z,63.00
2023-04-23T01:38:51.700Z,63.33
2023-04-23T01:39:51.675Z,62.52
2023-04-23T01:40:51.666Z,62.84
2023-04-23T01:41:51.670Z,63.49
2023-04-23T01:42:51.637Z,66.23
2023-04-23T01:43:51.647Z,65.26
2023-04-23T01:44:51.616Z,63.65
2023-04-23T01:45:51.625Z,63.33
2023-04-23T01:46:51.600Z,63.65
2023-04-23T01:47:51.631Z,63.65
2023-04-23T01:48:51.594Z,63.65
2023-04-23T01:49:51.574Z,63.81
2023-04-23T01:50:51.557Z,63.65
2023-04-23T01:51:51.546Z,63.81
2023-04-23T01:52:51.538Z,63.81
2023-04-23T01:53:51.537Z,64.13
2023-04-23T01:54:51.519Z,63.97
2023-04-23T01:55:51.517Z,64.29
2023-04-23T01:56:51.496Z,64.61
2023-04-23T01:57:51.486Z,64.29
2023-04-23T01:58:51.483Z,64.78
2023-04-23T01:59:51.461Z,64.45
2023-04-23T02:00:51.453Z,64.13
2023-04-23T02:01:51.490Z,63.97
2023-04-23T02:02:51.612Z,64.13
2023-04-23T02:03:51.485Z,64.61
2023-04-23T02:04:51.417Z,64.29
2023-04-23T02:05:51.401Z,64.61
2023-04-23T02:06:51.397Z,65.10
2023-04-23T02:07:51.382Z,65.26
2023-04-23T02:08:51.383Z,65.58
2023-04-23T02:09:51.359Z,65.42
2023-04-23T02:10:51.353Z,65.26
2023-04-23T02:11:51.347Z,65.10
2023-04-23T02:12:51.330Z,65.26
2023-04-23T02:13:51.347Z,64.78
2023-04-23T02:14:51.311Z,65.42
2023-04-23T02:15:51.312Z,65.42
2023-04-23T02:16:51.293Z,65.74
2023-04-23T02:17:51.376Z,64.61
2023-04-23T02:18:51.279Z,65.42
2023-04-23T02:19:51.253Z,65.90
2023-04-23T02:20:51.245Z,65.90
2023-04-23T02:21:51.236Z,65.42
2023-04-23T02:22:51.225Z,64.61
2023-04-23T02:23:51.227Z,64.61
2023-04-23T02:24:51.209Z,64.78
2023-04-23T02:25:51.194Z,65.58
2023-04-23T02:26:51.178Z,65.42
2023-04-23T02:27:51.184Z,65.90
2023-04-23T02:28:51.170Z,66.23
2023-04-23T02:29:51.157Z,66.06
2023-04-23T02:30:51.150Z,66.06
2023-04-23T02:31:51.177Z,65.90
2023-04-23T02:32:51.189Z,66.55
2023-04-23T02:33:51.111Z,65.74
2023-04-23T02:34:51.116Z,66.06
2023-04-23T02:35:51.092Z,65.90
2023-04-23T02:36:51.089Z,66.39
2023-04-23T02:37:51.093Z,66.06
2023-04-23T02:38:51.061Z,66.55
2023-04-23T02:39:51.051Z,67.19
2023-04-23T02:40:51.038Z,66.55
2023-04-23T02:41:51.026Z,66.39
2023-04-23T02:42:51.035Z,67.03
2023-04-23T02:43:51.006Z,66.71
2023-04-23T02:44:51.001Z,66.87
2023-04-23T02:45:50.986Z,66.55
2023-04-23T02:46:51.021Z,66.55
2023-04-23T02:47:50.982Z,66.87
2023-04-23T02:48:50.967Z,66.87
2023-04-23T02:49:50.947Z,66.71
2023-04-23T02:50:50.925Z,66.55
2023-04-23T02:51:50.921Z,67.03
2023-04-23T02:52:51.295Z,67.19
2023-04-23T02:53:50.904Z,68.96
2023-04-23T02:54:50.879Z,66.71
2023-04-23T02:55:51.869Z,67.03
2023-04-23T02:56:50.878Z,66.71
2023-04-23T02:57:50.854Z,67.19
2023-04-23T02:58:50.861Z,66.55
2023-04-23T02:59:50.834Z,67.51
2023-04-23T03:00:50.854Z,66.87
2023-04-23T03:01:51.875Z,68.00
2023-04-23T03:02:50.900Z,66.71
2023-04-23T03:03:50.930Z,67.84
2023-04-23T03:04:50.783Z,67.19
2023-04-23T03:05:50.772Z,68.32
2023-04-23T03:06:50.760Z,68.64
2023-04-23T03:07:50.757Z,67.84
2023-04-23T03:08:50.748Z,67.68
2023-04-23T03:09:50.730Z,67.35
2023-04-23T03:10:50.723Z,67.51
2023-04-23T03:11:50.723Z,68.32
2023-04-23T03:12:50.705Z,68.16
2023-04-23T03:13:50.711Z,68.16
2023-04-23T03:14:50.677Z,68.16
2023-04-23T03:15:50.673Z,68.00
2023-04-23T03:16:50.668Z,68.00
2023-04-23T03:17:50.697Z,68.32
2023-04-23T03:18:50.639Z,68.48
2023-04-23T03:19:50.642Z,68.16
2023-04-23T03:20:50.621Z,68.16
2023-04-23T03:21:50.613Z,68.16
2023-04-23T03:22:50.595Z,68.32
2023-04-23T03:23:50.593Z,68.48
2023-04-23T03:24:50.582Z,68.32
2023-04-23T03:25:50.564Z,68.32
2023-04-23T03:26:50.558Z,68.80
2023-04-23T03:27:50.558Z,68.64
2023-04-23T03:28:50.547Z,68.64
2023-04-23T03:29:50.528Z,69.13
2023-04-23T03:30:50.553Z,68.80
2023-04-23T03:31:50.507Z,69.13
2023-04-23T03:32:50.530Z,69.45
2023-04-23T03:33:50.507Z,69.29
2023-04-23T03:34:50.481Z,68.64
2023-04-23T03:35:50.464Z,79.44
2023-04-23T03:36:50.462Z,77.34
2023-04-23T03:37:50.449Z,76.86
2023-04-23T03:38:50.451Z,79.44
2023-04-23T03:39:50.427Z,84.11
2023-04-23T03:40:50.416Z,82.98
2023-04-23T03:41:50.407Z,81.21
2023-04-23T03:42:50.392Z,84.92
2023-04-23T03:43:50.395Z,84.43
2023-04-23T03:44:50.374Z,77.83
2023-04-23T03:45:50.406Z,76.38
2023-04-23T03:46:50.355Z,76.38
2023-04-23T03:47:50.387Z,77.02
2023-04-23T03:48:50.345Z,78.79
2023-04-23T03:49:50.320Z,79.12
2023-04-23T03:50:50.313Z,80.89
2023-04-23T03:51:50.299Z,68.80
2023-04-23T03:52:50.297Z,68.96
2023-04-23T03:53:50.291Z,69.29
2023-04-23T03:54:50.271Z,68.48
2023-04-23T03:55:50.259Z,68.64
2023-04-23T03:56:50.370Z,68.96
2023-04-23T03:57:50.241Z,77.34
2023-04-23T03:58:50.242Z,68.96
2023-04-23T03:59:50.219Z,70.58
2023-04-23T04:00:50.219Z,69.45
2023-04-23T04:01:50.202Z,69.45
2023-04-23T04:02:50.321Z,69.29
2023-04-23T04:03:50.383Z,70.74
2023-04-23T04:04:50.356Z,70.58
2023-04-23T04:05:50.253Z,69.93
2023-04-23T04:06:50.146Z,69.13
2023-04-23T04:07:50.155Z,70.58
2023-04-23T04:08:50.140Z,69.61
2023-04-23T04:09:50.117Z,69.45
2023-04-23T04:10:50.109Z,69.93
2023-04-23T04:11:51.735Z,69.13
2023-04-23T04:12:51.080Z,68.96
2023-04-23T04:13:50.089Z,68.96
2023-04-23T04:14:50.075Z,69.45
2023-04-23T04:15:50.067Z,70.09
2023-04-23T04:16:50.048Z,69.61
2023-04-23T04:17:50.094Z,68.96
2023-04-23T04:18:51.042Z,69.93
2023-04-23T04:19:50.047Z,68.96
2023-04-23T04:20:50.002Z,68.48
2023-04-23T04:21:49.986Z,68.96
2023-04-23T04:22:49.975Z,68.48
2023-04-23T04:23:49.973Z,69.13
2023-04-23T04:24:49.956Z,68.80
2023-04-23T04:25:49.943Z,69.77
2023-04-23T04:26:49.931Z,69.77
2023-04-23T04:27:49.916Z,69.93
2023-04-23T04:28:49.920Z,72.19
2023-04-23T04:29:49.905Z,68.96
2023-04-23T04:30:49.885Z,68.96
2023-04-23T04:31:49.889Z,71.22
2023-04-23T04:32:49.889Z,70.42
2023-04-23T04:33:49.874Z,70.25
2023-04-23T04:34:49.846Z,70.74
2023-04-23T04:35:49.834Z,69.77
2023-04-23T04:36:49.827Z,70.90
2023-04-23T04:37:49.844Z,70.90
2023-04-23T04:38:49.816Z,68.96
2023-04-23T04:39:49.792Z,70.58
2023-04-23T04:40:49.779Z,71.54
2023-04-23T04:41:49.772Z,69.77
2023-04-23T04:42:49.766Z,70.90
2023-04-23T04:43:49.762Z,70.90
2023-04-23T04:44:49.741Z,69.13
2023-04-23T04:45:49.729Z,70.09
2023-04-23T04:46:49.750Z,69.77
2023-04-23T04:47:49.751Z,71.06
2023-04-23T04:48:49.700Z,70.25
2023-04-23T04:49:49.677Z,69.93
2023-04-23T04:50:49.672Z,69.45
2023-04-23T04:51:49.656Z,70.25
2023-04-23T04:52:49.652Z,70.25
2023-04-23T04:53:49.647Z,70.09
2023-04-23T04:54:49.630Z,71.87
2023-04-23T04:55:49.614Z,71.70
2023-04-23T04:56:49.633Z,69.77
2023-04-23T04:57:49.598Z,68.96
2023-04-23T04:58:49.605Z,70.09
2023-04-23T04:59:49.574Z,70.90
2023-04-23T05:00:49.614Z,71.87
2023-04-23T05:01:49.562Z,73.32
2023-04-23T05:02:49.676Z,71.06
2023-04-23T05:03:49.680Z,71.54
2023-04-23T05:04:49.523Z,71.06
2023-04-23T05:05:49.512Z,71.54
2023-04-23T05:06:49.507Z,69.77
2023-04-23T05:07:49.513Z,71.70
2023-04-23T05:08:49.502Z,72.03
2023-04-23T05:09:49.480Z,72.03
2023-04-23T05:10:49.458Z,70.74
2023-04-23T05:11:49.448Z,71.38
2023-04-23T05:12:49.441Z,70.74
2023-04-23T05:13:49.438Z,70.90
2023-04-23T05:14:49.416Z,71.38
2023-04-23T05:15:49.407Z,71.22
2023-04-23T05:16:49.414Z,72.67
2023-04-23T05:17:49.432Z,72.83
2023-04-23T05:18:49.404Z,71.38
2023-04-23T05:19:49.365Z,71.70
2023-04-23T05:20:49.375Z,72.03
2023-04-23T05:21:49.345Z,70.90
2023-04-23T05:22:49.333Z,70.25
2023-04-23T05:23:49.333Z,70.09
2023-04-23T05:24:49.316Z,70.42
2023-04-23T05:25:49.300Z,71.22
2023-04-23T05:26:49.286Z,70.42
2023-04-23T05:27:49.302Z,69.61
2023-04-23T05:28:49.271Z,70.25
2023-04-23T05:29:49.275Z,71.06
2023-04-23T05:30:49.250Z,69.93
2023-04-23T05:31:49.253Z,70.09
2023-04-23T05:32:49.369Z,71.70
2023-04-23T05:33:50.719Z,70.09
2023-04-23T05:34:50.207Z,69.93
2023-04-23T05:35:49.195Z,69.93
2023-04-23T05:36:49.182Z,70.58
2023-04-23T05:37:49.172Z,70.25
2023-04-23T05:38:49.161Z,69.77
2023-04-23T05:39:49.168Z,70.90
2023-04-23T05:40:49.134Z,70.42
2023-04-23T05:41:49.122Z,70.58
2023-04-23T05:42:49.114Z,69.93
2023-04-23T05:43:49.101Z,71.06
2023-04-23T05:44:49.104Z,71.38
2023-04-23T05:45:49.121Z,71.38
2023-04-23T05:46:49.077Z,70.09
2023-04-23T05:47:49.098Z,70.42
2023-04-23T05:48:49.050Z,70.58
2023-04-23T05:49:49.044Z,70.25
2023-04-23T05:50:49.027Z,70.09
2023-04-23T05:51:50.020Z,70.58
2023-04-23T05:52:49.003Z,70.90
2023-04-23T05:53:48.990Z,71.06
2023-04-23T05:54:48.993Z,71.54
2023-04-23T05:55:48.975Z,69.93
2023-04-23T05:56:48.959Z,69.93
2023-04-23T05:57:48.951Z,70.74
2023-04-23T05:58:48.943Z,72.03
2023-04-23T05:59:48.939Z,69.61
2023-04-23T06:00:48.914Z,69.77
2023-04-23T06:01:48.902Z,70.58
2023-04-23T06:02:48.981Z,70.09
2023-04-23T06:03:49.087Z,69.93
2023-04-23T06:04:49.286Z,68.96
2023-04-23T06:05:48.924Z,68.48
2023-04-23T06:06:48.858Z,67.84
2023-04-23T06:07:48.845Z,69.93
2023-04-23T06:08:48.831Z,69.93
2023-04-23T06:09:48.828Z,71.06
2023-04-23T06:10:48.810Z,69.93
2023-04-23T06:11:48.803Z,68.96
2023-04-23T06:12:48.785Z,70.25
2023-04-23T06:13:48.779Z,70.25
2023-04-23T06:14:48.780Z,69.77
2023-04-23T06:15:48.812Z,69.77
2023-04-23T06:16:48.752Z,70.09
2023-04-23T06:17:48.774Z,68.96
2023-04-23T06:18:48.733Z,69.29
2023-04-23T06:19:48.725Z,70.74
2023-04-23T06:20:48.711Z,71.87
2023-04-23T06:21:48.693Z,68.96
2023-04-23T06:22:48.679Z,69.29
2023-04-23T06:23:48.686Z,68.64
2023-04-23T06:24:48.655Z,69.93
2023-04-23T06:25:48.650Z,71.70
2023-04-23T06:26:48.636Z,69.93
2023-04-23T06:27:48.633Z,70.25
2023-04-23T06:28:48.623Z,68.32
2023-04-23T06:29:48.605Z,71.38
2023-04-23T06:30:48.594Z,69.93
2023-04-23T06:31:48.623Z,68.64
2023-04-23T06:32:48.603Z,69.13
2023-04-23T06:33:48.585Z,68.00
2023-04-23T06:34:59.671Z,67.35
2023-04-23T06:35:50.548Z,69.61
2023-04-23T06:36:48.534Z,68.00
2023-04-23T06:37:48.519Z,68.64
2023-04-23T06:38:48.523Z,67.51
2023-04-23T06:39:48.502Z,65.58
2023-04-23T06:40:48.491Z,67.03
2023-04-23T06:41:48.484Z,67.35
2023-04-23T06:42:48.477Z,68.48
2023-04-23T06:43:48.474Z,67.51
2023-04-23T06:44:48.469Z,65.74
2023-04-23T06:45:48.446Z,65.74
2023-04-23T06:46:48.434Z,64.45
2023-04-23T06:47:48.443Z,65.58
2023-04-23T06:48:48.422Z,64.78
2023-04-23T06:49:48.422Z,65.58
2023-04-23T06:50:48.392Z,67.51
2023-04-23T06:51:48.381Z,67.19
2023-04-23T06:52:48.367Z,65.90
2023-04-23T06:53:48.375Z,66.55
2023-04-23T06:54:48.354Z,64.78
2023-04-23T06:55:48.331Z,66.71
2023-04-23T06:56:48.318Z,66.23
2023-04-23T06:57:48.316Z,67.51
2023-04-23T06:58:48.308Z,68.32
2023-04-23T06:59:48.296Z,65.10
2023-04-23T07:00:48.294Z,67.19
2023-04-23T07:01:48.273Z,65.90
2023-04-23T07:02:48.291Z,65.26
2023-04-23T07:03:48.306Z,65.42
2023-04-23T07:04:48.366Z,66.23
2023-04-23T07:05:48.238Z,64.94
2023-04-23T07:06:48.227Z,66.23
2023-04-23T07:07:48.232Z,66.06
2023-04-23T07:08:48.228Z,65.42
2023-04-23T07:09:48.206Z,66.06
2023-04-23T07:10:48.193Z,66.39
2023-04-23T07:11:48.191Z,67.84
2023-04-23T07:12:48.179Z,67.19
2023-04-23T07:13:48.163Z,66.23
2023-04-23T07:14:48.174Z,67.68
2023-04-23T07:15:48.142Z,65.74
2023-04-23T07:16:48.151Z,66.55
2023-04-23T07:17:48.140Z,67.03
2023-04-23T07:18:48.117Z,67.19
2023-04-23T07:19:48.128Z,67.19
2023-04-23T07:20:48.097Z,66.23
2023-04-23T07:21:48.095Z,66.23
2023-04-23T07:22:48.089Z,68.48
2023-04-23T07:23:48.132Z,68.32
2023-04-23T07:24:48.076Z,68.48
2023-04-23T07:25:48.057Z,67.51
2023-04-23T07:26:48.041Z,66.39
2023-04-23T07:27:48.094Z,67.35
2023-04-23T07:28:48.026Z,68.96
2023-04-23T07:29:48.033Z,67.19
2023-04-23T07:30:48.003Z,68.64
2023-04-23T07:31:48.005Z,65.74
2023-04-23T07:32:47.989Z,67.84
2023-04-23T07:33:47.976Z,68.00
2023-04-23T07:34:47.978Z,67.03
2023-04-23T07:35:47.981Z,67.35
2023-04-23T07:36:47.962Z,67.35
2023-04-23T07:37:47.932Z,66.87
2023-04-23T07:38:48.936Z,67.03
2023-04-23T07:39:48.250Z,66.39
2023-04-23T07:40:47.912Z,66.87
2023-04-23T07:41:47.894Z,68.32
2023-04-23T07:42:47.884Z,67.68
2023-04-23T07:43:47.882Z,68.96
2023-04-23T07:44:47.876Z,67.35
2023-04-23T07:45:47.967Z,66.06
2023-04-23T07:46:47.839Z,68.16
2023-04-23T07:47:47.906Z,70.58
2023-04-23T07:48:47.827Z,66.23
2023-04-23T07:49:47.825Z,65.42
2023-04-23T07:50:47.807Z,66.23
2023-04-23T07:51:47.791Z,68.00
2023-04-23T07:52:47.787Z,65.26
2023-04-23T07:53:47.768Z,63.81
2023-04-23T07:54:47.774Z,66.23
2023-04-23T07:55:47.749Z,67.03
2023-04-23T07:56:47.762Z,66.87
2023-04-23T07:57:47.725Z,64.61
2023-04-23T07:58:47.721Z,73.96
2023-04-23T07:59:47.722Z,65.42
2023-04-23T08:00:47.698Z,66.87
2023-04-23T08:01:47.676Z,63.81
2023-04-23T08:02:47.745Z,64.45
2023-04-23T08:03:47.894Z,64.61
2023-04-23T08:04:47.826Z,64.78
2023-04-23T08:05:47.698Z,63.97
2023-04-23T08:06:47.634Z,70.90
2023-04-23T08:07:47.631Z,72.35
2023-04-23T08:08:47.636Z,65.42
2023-04-23T08:10:47.592Z,67.84
2023-04-23T08:11:47.583Z,66.71
2023-04-23T08:12:47.578Z,66.39
2023-04-23T08:13:47.563Z,66.06
2023-04-23T08:14:47.561Z,63.97
2023-04-23T08:15:47.579Z,64.61
2023-04-23T08:16:47.522Z,65.10
2023-04-23T08:17:47.536Z,64.29
2023-04-23T08:19:03.618Z,65.90
2023-04-23T08:19:49.513Z,66.06
2023-04-23T08:20:47.496Z,66.39
2023-04-23T08:21:47.472Z,64.78
2023-04-23T08:22:47.463Z,66.55
2023-04-23T08:23:47.451Z,65.58
2023-04-23T08:24:47.469Z,67.68
2023-04-23T08:25:47.436Z,65.90
2023-04-23T08:26:47.419Z,64.13
2023-04-23T08:27:47.414Z,65.26
2023-04-23T08:28:47.408Z,65.90
2023-04-23T08:29:47.393Z,66.06
2023-04-23T08:30:47.394Z,66.23
2023-04-23T08:31:47.391Z,66.55
2023-04-23T08:32:47.385Z,67.51
2023-04-23T08:33:47.352Z,66.23
2023-04-23T08:34:47.355Z,66.87
2023-04-23T08:35:47.328Z,66.39
2023-04-23T08:36:47.310Z,65.74
2023-04-23T08:37:47.316Z,67.35
2023-04-23T08:38:47.294Z,67.35
2023-04-23T08:39:47.294Z,66.55
2023-04-23T08:40:47.270Z,66.87
2023-04-23T08:41:47.259Z,67.68
2023-04-23T08:42:47.250Z,68.48
2023-04-23T08:43:47.237Z,66.23
2023-04-23T08:44:47.237Z,68.96
2023-04-23T08:45:47.223Z,66.71
2023-04-23T08:46:47.345Z,65.74
2023-04-23T08:47:47.309Z,66.87
2023-04-23T08:48:47.188Z,67.03
2023-04-23T08:49:47.190Z,66.23
2023-04-23T08:50:47.166Z,65.10
2023-04-23T08:51:47.160Z,66.71
2023-04-23T08:52:47.143Z,65.10
2023-04-23T08:53:47.136Z,64.61
2023-04-23T08:54:47.143Z,66.39
2023-04-23T08:55:47.124Z,65.10
2023-04-23T08:56:47.105Z,63.81
2023-04-23T08:57:47.089Z,65.74
2023-04-23T08:58:47.092Z,66.87
2023-04-23T08:59:47.086Z,68.48
2023-04-23T09:00:47.144Z,67.35
2023-04-23T09:01:47.068Z,66.87
2023-04-23T09:02:47.106Z,65.90
2023-04-23T09:03:47.184Z,65.90
2023-04-23T09:04:48.859Z,65.90
2023-04-23T09:05:47.022Z,66.06
2023-04-23T09:06:47.018Z,67.35
2023-04-23T09:07:47.005Z,65.90
2023-04-23T09:08:46.991Z,66.39
2023-04-23T09:09:46.997Z,66.71
2023-04-23T09:10:46.971Z,68.32
2023-04-23T09:11:46.981Z,67.68
2023-04-23T09:12:46.943Z,67.19
2023-04-23T09:13:46.948Z,65.90
2023-04-23T09:14:46.936Z,66.71
2023-04-23T09:15:46.954Z,63.97
2023-04-23T09:16:46.980Z,70.25
2023-04-23T09:17:46.948Z,69.77
2023-04-23T09:18:46.886Z,73.15
2023-04-23T09:19:47.047Z,66.55
2023-04-23T09:20:46.868Z,66.39
2023-04-23T09:21:46.909Z,66.87
2023-04-23T09:22:47.579Z,68.00
2023-04-23T09:23:47.839Z,68.64
2023-04-23T09:24:46.831Z,69.45
2023-04-23T09:25:47.816Z,67.35
2023-04-23T09:26:46.836Z,69.45
2023-04-23T09:27:46.794Z,68.00
2023-04-23T09:28:47.877Z,65.42
2023-04-23T09:29:46.782Z,65.58
2023-04-23T09:30:46.763Z,65.74
2023-04-23T09:31:46.850Z,66.06
2023-04-23T09:32:46.861Z,66.39
2023-04-23T09:33:46.733Z,65.10
2023-04-23T09:34:46.741Z,65.58
2023-04-23T09:35:46.707Z,65.58
2023-04-23T09:36:46.701Z,64.29
2023-04-23T09:37:46.699Z,64.78
2023-04-23T09:38:46.671Z,65.74
2023-04-23T09:39:46.685Z,64.29
2023-04-23T09:40:46.666Z,65.10
2023-04-23T09:41:46.662Z,65.74
2023-04-23T09:42:46.638Z,67.03
2023-04-23T09:43:46.628Z,65.74
2023-04-23T09:44:46.629Z,66.55
2023-04-23T09:45:46.644Z,65.74
2023-04-23T09:46:46.612Z,65.74
2023-04-23T09:47:46.610Z,64.61
2023-04-23T09:48:46.575Z,64.29
2023-04-23T09:49:46.580Z,63.65
2023-04-23T09:50:46.553Z,63.81
2023-04-23T09:51:46.546Z,64.94
2023-04-23T09:52:46.534Z,64.78
2023-04-23T09:53:46.519Z,64.45
2023-04-23T09:54:46.647Z,63.81
2023-04-23T09:55:46.505Z,64.45
2023-04-23T09:56:46.492Z,64.61
2023-04-23T09:57:46.483Z,64.94
2023-04-23T09:58:46.475Z,63.97
2023-04-23T09:59:50.143Z,63.65
2023-04-23T10:00:48.456Z,64.45
2023-04-23T10:01:46.532Z,65.10
2023-04-23T10:02:46.566Z,64.29
2023-04-23T10:03:46.545Z,64.61
2023-04-23T10:04:46.681Z,71.22
2023-04-23T10:06:00.436Z,64.78
2023-04-23T10:06:57.758Z,66.23
2023-04-23T10:07:48.383Z,64.45
2023-04-23T10:08:46.369Z,66.23
2023-04-23T10:09:46.390Z,65.90
2023-04-23T10:10:57.373Z,65.74
2023-04-23T10:11:48.342Z,64.61
2023-04-23T10:12:54.717Z,64.29
2023-04-23T10:13:48.331Z,65.74
2023-04-23T10:14:46.329Z,65.74
2023-04-23T10:15:46.378Z,64.45
2023-04-23T10:16:49.310Z,68.80
2023-04-23T10:17:47.288Z,67.68
2023-04-23T10:18:46.282Z,64.61
2023-04-23T10:19:46.598Z,64.13
2023-04-23T10:20:46.254Z,64.78
2023-04-23T10:21:54.782Z,64.61
2023-04-23T10:22:48.233Z,63.97
2023-04-23T10:23:47.224Z,65.42
2023-04-23T10:24:48.724Z,65.26
2023-04-23T10:25:46.220Z,64.61
2023-04-23T10:26:46.201Z,64.61
2023-04-23T10:27:53.104Z,65.90
2023-04-23T10:28:48.190Z,65.10
2023-04-23T10:29:46.187Z,65.42
2023-04-23T10:30:46.162Z,65.58
2023-04-23T10:31:46.165Z,66.55
2023-04-23T10:32:46.178Z,65.74
2023-04-23T10:33:57.769Z,66.06
2023-04-23T10:34:48.142Z,64.94
2023-04-23T10:35:48.608Z,65.26
2023-04-23T10:36:46.098Z,66.06
2023-04-23T10:37:46.099Z,64.61
2023-04-23T10:38:56.958Z,66.39
2023-04-23T10:39:48.284Z,65.74
2023-04-23T10:40:46.082Z,66.06
2023-04-23T10:41:46.085Z,67.03
2023-04-23T10:42:46.042Z,68.48
2023-04-23T10:43:47.032Z,66.55
2023-04-23T10:44:57.983Z,66.55
2023-04-23T10:45:48.019Z,66.23
2023-04-23T10:46:47.023Z,66.71
2023-04-23T10:47:46.121Z,65.58
2023-04-23T10:48:45.986Z,65.74
2023-04-23T10:49:45.980Z,66.55
2023-04-23T10:51:02.356Z,65.26
2023-04-23T10:52:46.944Z,66.06
2023-04-23T10:53:45.971Z,66.71
2023-04-23T10:54:45.919Z,65.10
2023-04-23T10:55:45.920Z,65.90
2023-04-23T10:56:45.903Z,65.74
2023-04-23T10:57:45.883Z,65.58
2023-04-23T10:58:45.878Z,65.10
2023-04-23T10:59:45.867Z,66.06
2023-04-23T11:00:46.298Z,65.58
2023-04-23T11:01:45.874Z,67.03
2023-04-23T11:02:45.978Z,65.10
2023-04-23T11:03:46.041Z,64.45
2023-04-23T11:04:45.945Z,64.45
2023-04-23T11:05:45.816Z,64.78
2023-04-23T11:06:45.791Z,67.35
2023-04-23T11:07:46.795Z,64.61
2023-04-23T11:08:45.786Z,65.26
2023-04-23T11:09:45.780Z,67.03
2023-04-23T11:10:45.765Z,65.74
2023-04-23T11:11:45.751Z,65.58
2023-04-23T11:12:45.760Z,67.51
2023-04-23T11:13:45.732Z,67.51
2023-04-23T11:14:45.738Z,67.03
2023-04-23T11:15:45.716Z,65.74
2023-04-23T11:16:45.817Z,66.39
2023-04-23T11:17:45.705Z,66.06
2023-04-23T11:18:45.684Z,65.90
2023-04-23T11:19:45.692Z,66.71
2023-04-23T11:20:45.663Z,67.35
2023-04-23T11:21:45.652Z,68.32
2023-04-23T11:22:45.647Z,66.71
2023-04-23T11:23:45.643Z,65.90
2023-04-23T11:24:45.638Z,68.64
2023-04-23T11:25:45.630Z,68.16
2023-04-23T11:26:45.601Z,67.19
2023-04-23T11:27:45.593Z,66.23
2023-04-23T11:28:45.583Z,68.32
2023-04-23T11:29:45.924Z,66.39
2023-04-23T11:30:45.566Z,66.55
2023-04-23T11:32:00.921Z,68.80
2023-04-23T11:32:47.649Z,67.84
2023-04-23T11:33:45.544Z,67.19
2023-04-23T11:34:45.532Z,67.19
2023-04-23T11:35:45.515Z,66.71
2023-04-23T11:36:45.515Z,67.35
2023-04-23T11:37:45.495Z,69.61
2023-04-23T11:38:45.679Z,68.96
2023-04-23T11:39:45.648Z,68.64
2023-04-23T11:40:45.468Z,68.48
2023-04-23T11:41:45.455Z,68.80
2023-04-23T11:42:45.459Z,69.93
2023-04-23T11:43:45.438Z,69.13
2023-04-23T11:44:45.516Z,68.00
2023-04-23T11:45:45.430Z,68.00
2023-04-23T11:46:45.411Z,68.64
2023-04-23T11:47:45.439Z,68.96
2023-04-23T11:48:45.393Z,69.93
2023-04-23T11:49:46.120Z,68.32
2023-04-23T11:50:45.375Z,69.29
2023-04-23T11:51:45.369Z,69.13
2023-04-23T11:52:45.354Z,68.16
2023-04-23T11:53:45.343Z,67.68
2023-04-23T11:54:45.342Z,68.32
2023-04-23T11:55:45.320Z,67.51
2023-04-23T11:56:45.308Z,68.16
2023-04-23T11:57:45.302Z,67.35
2023-04-23T11:58:45.292Z,68.32
2023-04-23T11:59:45.350Z,67.03
2023-04-23T12:00:45.277Z,66.71
2023-04-23T12:01:45.267Z,65.74
2023-04-23T12:02:45.409Z,65.10
2023-04-23T12:03:45.347Z,64.94
2023-04-23T12:04:45.246Z,65.58
2023-04-23T12:05:45.237Z,65.74
2023-04-23T12:06:45.209Z,64.78
2023-04-23T12:07:45.205Z,66.06
2023-04-23T12:08:45.193Z,65.26
2023-04-23T12:09:45.215Z,66.55
2023-04-23T12:10:45.167Z,66.87
2023-04-23T12:11:45.160Z,65.58
2023-04-23T12:12:45.147Z,65.26
2023-04-23T12:13:45.137Z,67.03
2023-04-23T12:14:45.131Z,66.39
2023-04-23T12:15:46.141Z,66.39
2023-04-23T12:16:45.111Z,68.00
2023-04-23T12:17:45.114Z,66.71
2023-04-23T12:18:45.092Z,64.94
2023-04-23T12:19:45.129Z,64.45
2023-04-23T12:20:45.075Z,65.74
2023-04-23T12:21:45.066Z,65.42
2023-04-23T12:22:45.049Z,65.42
2023-04-23T12:23:45.480Z,64.94
2023-04-23T12:24:45.039Z,65.26
2023-04-23T12:25:45.033Z,63.97
2023-04-23T12:26:45.059Z,63.97
2023-04-23T12:27:45.005Z,66.55
2023-04-23T12:28:44.992Z,66.87
2023-04-23T12:29:44.987Z,65.90
2023-04-23T12:30:44.991Z,66.87
2023-04-23T12:31:45.034Z,65.74
2023-04-23T12:32:44.969Z,65.90
2023-04-23T12:33:45.950Z,66.23
2023-04-23T12:34:44.940Z,67.19
2023-04-23T12:35:44.940Z,66.55
2023-04-23T12:36:44.917Z,66.55
2023-04-23T12:37:44.909Z,66.71
2023-04-23T12:38:44.897Z,66.55
2023-04-23T12:39:44.982Z,66.55
2023-04-23T12:40:44.887Z,65.90
2023-04-23T12:41:44.874Z,66.55
2023-04-23T12:42:44.887Z,67.03
2023-04-23T12:43:44.852Z,68.64
2023-04-23T12:44:44.843Z,67.51
2023-04-23T12:45:44.845Z,67.03
2023-04-23T12:46:44.897Z,66.71
2023-04-23T12:47:44.863Z,65.90
2023-04-23T12:48:44.805Z,67.19
2023-04-23T12:49:45.046Z,66.87
2023-04-23T12:50:44.798Z,66.23
2023-04-23T12:51:44.773Z,65.74
2023-04-23T12:52:44.762Z,67.03
2023-04-23T12:53:44.754Z,67.51
2023-04-23T12:54:44.760Z,68.64